Time;durP1;ratioP1;P1;durP2;ratioP2;P2;SDS_P1;SDS_P2;PMS_P1;PMS_P2;Temp;Humidity;BMP_temperature;BMP_pressure;BME280_temperature;BME280_humidity;BME280_pressure;Samples;Min_cycle;Max_cycle;Signal;HPM_P1;HPM_P2
2023/09/28 00:01:39;;;;;;;1999.90;999.90;;;20.10;99.90;;;;;;4983713;28;20933;-67
2023/09/28 00:04:06;;;;;;;1999.90;999.90;;;20.10;99.90;;;;;;5011979;28;20419;-66
2023/09/28 00:06:31;;;;;;;1999.90;999.90;;;20.10;99.90;;;;;;5013078;28;20790;-71
2023/09/28 00:08:57;;;;;;;1999.90;999.90;;;20.20;99.90;;;;;;5012937;28;20376;-69
2023/09/28 00:11:23;;;;;;;1999.90;999.90;;;20.20;99.90;;;;;;5012913;28;20741;-67
2023/09/28 00:13:49;;;;;;;1999.90;999.90;;;20.20;99.90;;;;;;5013059;28;20431;-66
2023/09/28 00:16:14;;;;;;;1999.90;999.90;;;20.20;99.90;;;;;;5001821;28;20213;-66
2023/09/28 00:18:40;;;;;;;1999.90;999.90;;;20.20;99.90;;;;;;4993049;28;20178;-69
2023/09/28 00:21:06;;;;;;;1999.90;999.90;;;20.20;99.90;;;;;;4992792;28;20200;-69
2023/09/28 00:23:33;;;;;;;1999.90;999.90;;;20.20;99.90;;;;;;4993388;28;20659;-69
2023/09/28 00:25:58;;;;;;;1999.90;999.90;;;20.20;99.90;;;;;;4992954;28;20634;-69
2023/09/28 00:28:24;;;;;;;1999.90;999.90;;;20.20;99.90;;;;;;4993064;28;20421;-69
2023/09/28 00:30:49;;;;;;;1999.90;999.90;;;20.20;99.90;;;;;;4992728;28;20199;-69
2023/09/28 00:33:15;;;;;;;1999.90;999.90;;;20.20;99.90;;;;;;5012564;28;20613;-69
2023/09/28 00:35:40;;;;;;;1999.90;999.90;;;20.20;99.90;;;;;;5012356;28;20276;-69
2023/09/28 00:38:07;;;;;;;1999.90;999.90;;;20.20;99.90;;;;;;5012493;28;20177;-70
2023/09/28 00:40:34;;;;;;;1999.90;999.90;;;20.20;99.90;;;;;;5011448;28;20273;-70
2023/09/28 00:43:00;;;;;;;1999.90;999.90;;;20.20;99.90;;;;;;5002763;28;20413;-70
2023/09/28 00:45:27;;;;;;;1999.90;999.90;;;20.20;99.90;;;;;;5008196;28;20410;-70
2023/09/28 00:48:01;;;;;;;1999.90;999.90;;;20.20;99.90;;;;;;4999293;28;20420;-69
2023/09/28 00:50:29;;;;;;;1999.90;999.90;;;20.10;99.90;;;;;;4998391;28;20461;-70
2023/09/28 00:52:59;;;;;;;1999.90;999.90;;;20.10;99.90;;;;;;5004159;28;20414;-69
2023/09/28 00:55:24;;;;;;;1999.90;999.90;;;20.10;99.90;;;;;;5012010;28;20460;-70
2023/09/28 00:57:51;;;;;;;1999.90;999.90;;;20.10;99.90;;;;;;5012230;28;20496;-70
2023/09/28 01:00:26;;;;;;;1999.90;999.90;;;20.10;99.90;;;;;;5012098;28;20608;-70
2023/09/28 01:02:53;;;;;;;1999.90;999.90;;;20.10;99.90;;;;;;4998831;28;20409;-69
2023/09/28 01:05:26;;;;;;;1999.90;999.90;;;20.10;99.90;;;;;;5012025;28;20412;-69
2023/09/28 01:07:52;;;;;;;1999.90;999.90;;;20.00;99.90;;;;;;5002179;28;20418;-69
2023/09/28 01:10:23;;;;;;;1999.90;999.90;;;20.00;99.90;;;;;;5012085;28;20435;-70
2023/09/28 01:12:49;;;;;;;1999.90;999.90;;;20.00;99.90;;;;;;5011745;28;20401;-69
2023/09/28 01:15:16;;;;;;;1999.90;999.90;;;20.00;99.90;;;;;;5011674;28;20483;-69
2023/09/28 01:17:43;;;;;;;1999.90;999.90;;;20.00;99.90;;;;;;5003946;28;20432;-69
2023/09/28 01:20:19;;;;;;;1999.90;999.90;;;20.00;99.90;;;;;;5003672;28;20435;-69
2023/09/28 01:22:45;;;;;;;1999.90;999.90;;;20.00;99.90;;;;;;5012010;28;20901;-69
2023/09/28 01:25:11;;;;;;;1999.90;999.90;;;20.10;99.90;;;;;;5011698;28;20474;-69
2023/09/28 01:27:37;;;;;;;1999.90;999.90;;;20.00;99.90;;;;;;5011991;28;20408;-70
2023/09/28 01:30:03;;;;;;;1999.90;999.90;;;20.00;99.90;;;;;;5010498;28;20677;-70
2023/09/28 01:32:29;;;;;;;1999.90;999.90;;;20.00;99.90;;;;;;5000919;28;20183;-70
2023/09/28 01:34:55;;;;;;;1999.90;999.90;;;20.00;99.90;;;;;;5012863;28;20470;-70
2023/09/28 01:37:29;;;;;;;1999.90;999.90;;;20.00;99.90;;;;;;5007341;28;20406;-69
2023/09/28 01:39:55;;;;;;;1999.90;999.90;;;20.10;99.90;;;;;;5015639;28;20221;-70
2023/09/28 01:42:21;;;;;;;1999.90;999.90;;;20.10;99.90;;;;;;5015902;28;20410;-70
2023/09/28 01:44:46;;;;;;;1999.90;999.90;;;20.10;99.90;;;;;;5015591;28;20898;-70
2023/09/28 01:47:12;;;;;;;1999.90;999.90;;;20.10;99.90;;;;;;5005718;28;20651;-69
2023/09/28 01:49:37;;;;;;;1999.90;999.90;;;20.10;99.90;;;;;;5007234;28;20638;-69
2023/09/28 01:52:03;;;;;;;1999.90;999.90;;;20.10;99.90;;;;;;5007398;28;20168;-70
2023/09/28 01:54:29;;;;;;;1999.90;999.90;;;20.00;99.90;;;;;;5015488;28;20165;-70
2023/09/28 01:56:54;;;;;;;1999.90;999.90;;;20.00;99.90;;;;;;5015125;28;20207;-69
2023/09/28 01:59:20;;;;;;;1999.90;999.90;;;19.90;99.90;;;;;;5014119;28;20188;-69
2023/09/28 02:01:45;;;;;;;1999.90;999.90;;;19.90;99.90;;;;;;4995562;28;20175;-70
2023/09/28 02:04:11;;;;;;;1999.90;999.90;;;19.80;99.90;;;;;;5006242;28;20620;-69
2023/09/28 02:06:36;;;;;;;1999.90;999.90;;;19.70;99.90;;;;;;5015116;28;20169;-69
2023/09/28 02:09:04;;;;;;;1999.90;999.90;;;19.70;99.90;;;;;;5015208;28;20210;-69
2023/09/28 02:11:29;;;;;;;1999.90;999.90;;;19.60;99.90;;;;;;5015130;28;20181;-69
2023/09/28 02:13:55;;;;;;;1999.90;999.90;;;19.50;99.90;;;;;;5015023;28;20415;-69
2023/09/28 02:16:20;;;;;;;1999.90;999.90;;;19.50;99.90;;;;;;5009323;28;20295;-70
2023/09/28 02:18:46;;;;;;;1999.90;999.90;;;19.50;99.90;;;;;;4999556;28;20170;-69
2023/09/28 02:21:15;;;;;;;1999.90;999.90;;;19.50;99.90;;;;;;5014550;28;20173;-69
2023/09/28 02:23:42;;;;;;;1999.90;999.90;;;19.40;99.90;;;;;;5014874;28;20184;-69
2023/09/28 02:26:07;;;;;;;1999.90;999.90;;;19.40;99.90;;;;;;5014676;28;20416;-69
2023/09/28 02:28:33;;;;;;;1999.90;999.90;;;19.30;99.90;;;;;;5014832;28;20852;-69
2023/09/28 02:31:08;;;;;;;1999.90;999.90;;;19.30;99.90;;;;;;5005118;28;20198;-69
2023/09/28 02:33:34;;;;;;;1999.90;999.90;;;19.30;99.90;;;;;;4998504;28;20569;-70
2023/09/28 02:36:00;;;;;;;1999.90;999.90;;;19.30;99.90;;;;;;5004211;28;20483;-70
2023/09/28 02:38:26;;;;;;;1999.90;999.90;;;19.30;99.90;;;;;;5006451;28;20400;-70
2023/09/28 02:40:51;;;;;;;1999.90;999.90;;;19.10;99.90;;;;;;5014590;28;20229;-70
2023/09/28 02:43:17;;;;;;;1999.90;999.90;;;19.10;99.90;;;;;;5014175;28;20235;-70
2023/09/28 02:45:42;;;;;;;1999.90;999.90;;;19.00;99.90;;;;;;5014264;28;20167;-69
2023/09/28 02:48:08;;;;;;;1999.90;999.90;;;19.00;99.90;;;;;;5006908;28;20543;-70
2023/09/28 02:50:34;;;;;;;1999.90;999.90;;;19.00;99.90;;;;;;5001723;28;20216;-70
2023/09/28 02:53:00;;;;;;;1999.90;999.90;;;19.00;99.90;;;;;;5006201;28;20165;-70
2023/09/28 02:55:25;;;;;;;1999.90;999.90;;;19.00;99.90;;;;;;5014079;28;20443;-69
2023/09/28 02:57:51;;;;;;;1999.90;999.90;;;19.00;99.90;;;;;;5014262;28;20165;-69
2023/09/28 03:00:24;;;;;;;1999.90;999.90;;;19.00;99.90;;;;;;5014159;28;20662;-70
2023/09/28 03:02:51;;;;;;;1999.90;999.90;;;18.90;99.90;;;;;;5008024;28;20206;-70
2023/09/28 03:05:20;;;;;;;1999.90;999.90;;;19.00;99.90;;;;;;4994056;28;20477;-70
2023/09/28 03:07:46;;;;;;;1999.90;999.90;;;18.90;99.90;;;;;;5005907;28;20412;-70
2023/09/28 03:10:12;;;;;;;1999.90;999.90;;;18.90;99.90;;;;;;5009831;28;20449;-70
2023/09/28 03:12:42;;;;;;;1999.90;999.90;;;18.80;99.90;;;;;;5008614;28;20404;-70
2023/09/28 03:15:10;;;;;;;1999.90;999.90;;;18.90;99.90;;;;;;5013799;28;20297;-70
2023/09/28 03:17:40;;;;;;;1999.90;999.90;;;18.80;99.90;;;;;;5005404;28;20837;-71
2023/09/28 03:20:17;;;;;;;1999.90;999.90;;;18.70;99.90;;;;;;5003940;28;20432;-71
2023/09/28 03:22:45;;;;;;;1999.90;999.90;;;18.70;99.90;;;;;;5013816;28;20498;-70
2023/09/28 03:25:17;;;;;;;1999.90;999.90;;;18.60;99.90;;;;;;5013488;28;20408;-70
2023/09/28 03:27:44;;;;;;;1999.90;999.90;;;18.60;99.90;;;;;;5013920;28;20502;-70
2023/09/28 03:30:11;;;;;;;1999.90;999.90;;;18.40;99.90;;;;;;5013575;28;20442;-70
2023/09/28 03:32:38;;;;;;;1999.90;999.90;;;18.40;99.90;;;;;;5010909;28;20928;-70
2023/09/28 03:35:05;;;;;;;1999.90;999.90;;;18.30;99.90;;;;;;5005092;28;20541;-70
2023/09/28 03:37:31;;;;;;;1999.90;999.90;;;18.30;99.90;;;;;;5013526;28;20408;-71
2023/09/28 03:39:58;;;;;;;1999.90;999.90;;;18.30;99.90;;;;;;5013409;28;20738;-70
2023/09/28 03:42:23;;;;;;;1999.90;999.90;;;18.20;99.90;;;;;;5013681;28;20221;-70
2023/09/28 03:44:49;;;;;;;1999.90;999.90;;;18.20;99.90;;;;;;5013463;28;20775;-69
2023/09/28 03:47:15;;;;;;;1999.90;999.90;;;18.30;99.90;;;;;;5007679;28;20178;-70
2023/09/28 03:49:40;;;;;;;1999.90;999.90;;;18.40;99.90;;;;;;5000846;28;20213;-70
2023/09/28 03:52:06;;;;;;;1999.90;999.90;;;18.40;99.90;;;;;;5011501;28;20173;-69
2023/09/28 03:54:31;;;;;;;1999.90;999.90;;;18.40;99.90;;;;;;5012708;28;20174;-69
2023/09/28 03:56:58;;;;;;;1999.90;999.90;;;18.40;99.90;;;;;;5012635;28;20684;-70
2023/09/28 03:59:23;;;;;;;1999.90;999.90;;;18.60;99.90;;;;;;5013202;28;20188;-70
2023/09/28 04:01:49;;;;;;;1999.90;999.90;;;18.60;99.90;;;;;;5013196;28;20457;-70
2023/09/28 04:04:14;;;;;;;1999.90;999.90;;;18.60;99.90;;;;;;4994932;28;20269;-69
2023/09/28 04:06:40;;;;;;;1999.90;999.90;;;18.60;99.90;;;;;;5007356;28;20169;-70
2023/09/28 04:09:07;;;;;;;1999.90;999.90;;;18.70;99.90;;;;;;5012859;28;20198;-68
2023/09/28 04:11:34;;;;;;;1999.90;999.90;;;18.80;99.90;;;;;;5013069;28;20174;-70
2023/09/28 04:14:01;;;;;;;1999.90;999.90;;;18.70;99.90;;;;;;5002605;28;20496;-68
2023/09/28 04:16:27;;;;;;;1999.90;999.90;;;18.70;99.90;;;;;;5012653;28;20454;-70
2023/09/28 04:18:52;;;;;;;1999.90;999.90;;;18.80;99.90;;;;;;5000546;28;20426;-70
2023/09/28 04:21:18;;;;;;;1999.90;999.90;;;18.70;99.90;;;;;;5004483;28;20171;-69
2023/09/28 04:23:43;;;;;;;1999.90;999.90;;;18.70;99.90;;;;;;5012911;28;20173;-70
2023/09/28 04:26:10;;;;;;;1999.90;999.90;;;18.80;99.90;;;;;;5012622;28;20701;-70
2023/09/28 04:28:35;;;;;;;1999.90;999.90;;;18.80;99.90;;;;;;5012803;28;20173;-70
2023/09/28 04:31:01;;;;;;;1999.90;999.90;;;18.90;99.90;;;;;;5002624;28;20435;-69
2023/09/28 04:33:26;;;;;;;1999.90;999.90;;;18.90;99.90;;;;;;4998154;28;20192;-70
2023/09/28 04:35:52;;;;;;;1999.90;999.90;;;19.00;99.90;;;;;;4996784;28;20221;-70
2023/09/28 04:38:18;;;;;;;1999.90;999.90;;;19.00;99.90;;;;;;5011987;28;20768;-70
2023/09/28 04:40:43;;;;;;;1999.90;999.90;;;19.10;99.90;;;;;;5012498;28;20189;-70
2023/09/28 04:43:09;;;;;;;1999.90;999.90;;;19.10;99.90;;;;;;5012466;28;20419;-70
2023/09/28 04:45:34;;;;;;;1999.90;999.90;;;19.10;99.90;;;;;;5001972;28;20229;-70
2023/09/28 04:48:00;;;;;;;1999.90;999.90;;;19.10;99.90;;;;;;5001314;28;20184;-69
2023/09/28 04:50:26;;;;;;;1999.90;999.90;;;19.10;99.90;;;;;;5003994;28;20204;-70
2023/09/28 04:52:51;;;;;;;1999.90;999.90;;;19.10;99.90;;;;;;5012299;28;20175;-70
2023/09/28 04:55:17;;;;;;;1999.90;999.90;;;19.10;99.90;;;;;;5003031;28;20297;-70
2023/09/28 04:57:43;;;;;;;1999.90;999.90;;;19.10;99.90;;;;;;5006778;28;20179;-69
2023/09/28 05:00:16;;;;;;;1999.90;999.90;;;19.10;99.90;;;;;;5012157;28;20194;-70
2023/09/28 05:02:45;;;;;;;1999.90;999.90;;;19.10;99.90;;;;;;5010133;28;20176;-70
2023/09/28 05:05:11;;;;;;;1999.90;999.90;;;19.10;99.90;;;;;;5000790;28;20416;-69
2023/09/28 05:07:37;;;;;;;1999.90;999.90;;;19.10;99.90;;;;;;5005826;28;20419;-70
2023/09/28 05:10:05;;;;;;;1999.90;999.90;;;19.10;99.90;;;;;;5012226;28;20992;-69
2023/09/28 05:12:31;;;;;;;1999.90;999.90;;;19.10;99.90;;;;;;5004083;28;20201;-69
2023/09/28 05:14:57;;;;;;;1999.90;999.90;;;19.10;99.90;;;;;;5003811;28;20448;-70
2023/09/28 05:17:23;;;;;;;1999.90;999.90;;;19.10;99.90;;;;;;5011887;28;20173;-69
2023/09/28 05:19:48;;;;;;;1999.90;999.90;;;19.10;99.90;;;;;;5001054;28;20437;-70
2023/09/28 05:22:15;;;;;;;1999.90;999.90;;;19.20;99.90;;;;;;5003869;28;20811;-69
2023/09/28 05:24:41;;;;;;;1999.90;999.90;;;19.20;99.90;;;;;;5003742;28;20226;-68
2023/09/28 05:27:07;;;;;;;1999.90;999.90;;;19.10;99.90;;;;;;5011864;28;20829;-70
2023/09/28 05:29:33;;;;;;;1999.90;999.90;;;19.10;99.90;;;;;;5011926;28;20258;-70
2023/09/28 05:31:58;;;;;;;1999.90;999.90;;;18.90;99.90;;;;;;5011946;28;20415;-70
2023/09/28 05:34:24;;;;;;;1999.90;999.90;;;18.70;99.90;;;;;;5000210;28;20660;-69
2023/09/28 05:36:50;;;;;;;1999.90;999.90;;;18.50;99.90;;;;;;5001222;28;20659;-69
2023/09/28 05:39:18;;;;;;;1999.90;999.90;;;18.30;99.90;;;;;;5002431;28;20196;-70
2023/09/28 05:41:44;;;;;;;1999.90;999.90;;;18.20;99.90;;;;;;5003655;28;20404;-70
2023/09/28 05:44:09;;;;;;;1999.90;999.90;;;18.10;99.90;;;;;;5003502;28;20414;-69
2023/09/28 05:46:36;;;;;;;1999.90;999.90;;;18.00;99.90;;;;;;5011618;28;20172;-70
2023/09/28 05:49:01;;;;;;;1999.90;999.90;;;17.90;99.90;;;;;;5011626;28;20211;-69
2023/09/28 05:51:28;;;;;;;1999.90;999.90;;;17.80;99.90;;;;;;5000296;28;20434;-70
2023/09/28 05:53:53;;;;;;;1999.90;999.90;;;17.90;99.90;;;;;;5000195;28;20171;-69
2023/09/28 05:56:19;;;;;;;1999.90;999.90;;;17.80;99.90;;;;;;5007453;28;21273;-70
2023/09/28 05:58:45;;;;;;;1999.90;999.90;;;18.30;99.90;;;;;;5003451;28;20408;-69
2023/09/28 06:01:13;;;;;;;1999.90;999.90;;;17.90;99.90;;;;;;5011589;28;20189;-69
2023/09/28 06:03:39;;;;;;;1999.90;999.90;;;18.00;99.90;;;;;;5011705;28;20163;-70
2023/09/28 06:06:16;;;;;;;1999.90;999.90;;;18.00;99.90;;;;;;5004272;28;20498;-69
2023/09/28 06:08:43;;;;;;;1999.90;999.90;;;18.30;99.90;;;;;;4994223;28;20439;-70
2023/09/28 06:11:16;;;;;;;1999.90;999.90;;;18.20;99.90;;;;;;5002096;28;20421;-70
2023/09/28 06:13:43;;;;;;;1999.90;999.90;;;18.30;99.90;;;;;;5003319;28;20435;-69
2023/09/28 06:16:11;;;;;;;1999.90;999.90;;;18.40;99.90;;;;;;5011079;28;20959;-70
2023/09/28 06:18:37;;;;;;;1999.90;999.90;;;18.50;99.90;;;;;;5012774;28;20485;-70
2023/09/28 06:21:03;;;;;;;1999.90;999.90;;;18.60;99.90;;;;;;5008882;28;20456;-70
2023/09/28 06:23:29;;;;;;;1999.90;999.90;;;18.70;99.90;;;;;;4999630;28;20791;-70
2023/09/28 06:25:54;;;;;;;1999.90;999.90;;;18.80;99.90;;;;;;5010339;28;20179;-69
2023/09/28 06:28:23;;;;;;;1999.90;999.90;;;18.80;99.90;;;;;;5014943;28;20169;-69
2023/09/28 06:30:50;;;;;;;1999.90;999.90;;;18.90;99.90;;;;;;5015021;28;20202;-69
2023/09/28 06:33:16;;;;;;;1999.90;999.90;;;18.90;99.90;;;;;;5014743;28;20408;-69
2023/09/28 06:35:41;;;;;;;1999.90;999.90;;;18.90;99.90;;;;;;5013088;28;20451;-69
2023/09/28 06:38:07;;;;;;;1999.90;999.90;;;19.00;99.90;;;;;;4997005;28;20561;-69
2023/09/28 06:40:32;;;;;;;1999.90;999.90;;;19.00;99.90;;;;;;5006452;28;20207;-69
2023/09/28 06:42:58;;;;;;;1999.90;999.90;;;19.20;99.90;;;;;;5014604;28;20192;-69
2023/09/28 06:45:23;;;;;;;1999.90;999.90;;;19.20;99.90;;;;;;5012564;28;20231;-70
2023/09/28 06:47:49;;;;;;;1999.90;999.90;;;19.20;99.90;;;;;;5003098;28;20183;-69
2023/09/28 06:50:14;;;;;;;1999.90;999.90;;;19.20;99.90;;;;;;5012477;28;20208;-69
2023/09/28 06:52:40;;;;;;;1999.90;999.90;;;19.30;99.90;;;;;;5011139;28;20186;-69
2023/09/28 06:55:07;;;;;;;1999.90;999.90;;;19.30;99.90;;;;;;5004388;28;20685;-69
2023/09/28 06:57:33;;;;;;;1999.90;999.90;;;19.30;99.90;;;;;;5006849;28;20558;-69
2023/09/28 06:59:58;;;;;;;1999.90;999.90;;;19.30;99.90;;;;;;5014203;28;20423;-69
2023/09/28 07:02:24;;;;;;;1999.90;999.90;;;19.40;99.90;;;;;;5005826;28;20176;-69
2023/09/28 07:04:49;;;;;;;1999.90;999.90;;;19.50;99.90;;;;;;5005998;28;20616;-69
2023/09/28 07:07:17;;;;;;;1999.90;999.90;;;19.60;99.90;;;;;;5013862;28;20169;-69
2023/09/28 07:09:46;;;;;;;1999.90;999.90;;;19.60;99.90;;;;;;5006131;28;20696;-69
2023/09/28 07:12:11;;;;;;;1999.90;999.90;;;19.70;99.90;;;;;;5005686;28;20408;-69
2023/09/28 07:14:37;;;;;;;1999.90;999.90;;;19.70;99.90;;;;;;5013904;28;20762;-69
2023/09/28 07:17:03;;;;;;;1999.90;999.90;;;19.70;99.90;;;;;;5013823;28;20211;-69
2023/09/28 07:19:29;;;;;;;1999.90;999.90;;;19.70;99.90;;;;;;5013805;28;20768;-69
2023/09/28 07:21:54;;;;;;;1999.90;999.90;;;19.70;99.90;;;;;;4991572;28;20555;-69
2023/09/28 07:24:21;;;;;;;1999.90;999.90;;;19.70;99.90;;;;;;4993935;28;20257;-69
2023/09/28 07:26:46;;;;;;;1999.90;999.90;;;19.70;99.90;;;;;;5004764;28;20195;-69
2023/09/28 07:29:12;;;;;;;1999.90;999.90;;;19.80;99.90;;;;;;5010801;28;20444;-69
2023/09/28 07:31:38;;;;;;;1999.90;999.90;;;19.80;99.90;;;;;;5013090;28;20199;-69
2023/09/28 07:34:04;;;;;;;1999.90;999.90;;;19.90;99.90;;;;;;5013628;28;20462;-69
2023/09/28 07:36:30;;;;;;;1999.90;999.90;;;19.90;99.90;;;;;;5013266;28;20448;-69
2023/09/28 07:38:55;;;;;;;1999.90;999.90;;;19.90;99.90;;;;;;5013452;28;20164;-69
2023/09/28 07:41:21;;;;;;;1999.90;999.90;;;20.00;99.90;;;;;;5013449;28;20172;-69
2023/09/28 07:43:47;;;;;;;1999.90;999.90;;;20.10;99.90;;;;;;5013420;28;20528;-69
2023/09/28 07:46:13;;;;;;;1999.90;999.90;;;20.20;99.90;;;;;;5013487;28;20259;-70
2023/09/28 07:48:40;;;;;;;1999.90;999.90;;;20.30;99.90;;;;;;5013425;28;20944;-69
2023/09/28 07:51:06;;;;;;;1999.90;999.90;;;20.40;99.90;;;;;;5013437;28;20428;-69
2023/09/28 07:53:31;;;;;;;1999.90;999.90;;;20.40;99.90;;;;;;4994023;28;20935;-69
2023/09/28 07:55:57;;;;;;;1999.90;999.90;;;20.60;99.90;;;;;;4987960;28;20208;-69
2023/09/28 07:58:23;;;;;;;1999.90;999.90;;;20.60;99.90;;;;;;4986218;28;20192;-69
2023/09/28 08:00:49;;;;;;;1999.90;999.90;;;20.70;99.90;;;;;;4987578;28;20431;-70
2023/09/28 08:03:15;;;;;;;1999.90;999.90;;;20.80;99.90;;;;;;4996567;28;20649;-70
2023/09/28 08:05:40;;;;;;;1999.90;999.90;;;20.70;99.90;;;;;;4998795;28;20509;-69
2023/09/28 08:08:06;;;;;;;1999.90;999.90;;;20.60;99.90;;;;;;5008051;28;20185;-69
2023/09/28 08:10:33;;;;;;;1999.90;999.90;;;20.50;99.90;;;;;;5008787;28;20696;-69
2023/09/28 08:13:00;;;;;;;1999.90;999.90;;;20.50;99.90;;;;;;5008478;28;20913;-70
2023/09/28 08:15:25;;;;;;;1999.90;999.90;;;20.50;99.90;;;;;;5007950;28;20431;-70
2023/09/28 08:17:51;;;;;;;1999.90;999.90;;;20.50;99.90;;;;;;5008903;28;20926;-70
2023/09/28 08:20:17;;;;;;;1999.90;999.90;;;20.50;99.90;;;;;;5007664;28;20195;-70
2023/09/28 08:22:43;;;;;;;1999.90;999.90;;;20.50;99.90;;;;;;5007981;28;20545;-70
2023/09/28 08:25:09;;;;;;;1999.90;999.90;;;20.60;99.90;;;;;;5008150;28;20418;-70
2023/09/28 08:27:35;;;;;;;1999.90;999.90;;;20.60;99.90;;;;;;5007654;28;20223;-70
2023/09/28 08:30:01;;;;;;;1999.90;999.90;;;20.70;99.90;;;;;;5007607;28;20201;-69
2023/09/28 08:32:27;;;;;;;1999.90;999.90;;;20.70;99.90;;;;;;5008869;28;20461;-68
2023/09/28 08:34:52;;;;;;;1999.90;999.90;;;20.80;99.90;;;;;;5007700;28;20933;-68
2023/09/28 08:37:18;;;;;;;1999.90;999.90;;;20.80;99.90;;;;;;5008240;28;20180;-69
2023/09/28 08:39:44;;;;;;;1999.90;999.90;;;20.80;99.90;;;;;;5008372;28;20219;-68
2023/09/28 08:42:15;;;;;;;1999.90;999.90;;;20.80;99.90;;;;;;5007360;28;20251;-68
2023/09/28 08:44:41;;;;;;;1999.90;999.90;;;20.80;99.90;;;;;;5007618;28;20411;-69
2023/09/28 08:47:16;;;;;;;1999.90;999.90;;;20.90;99.90;;;;;;5008353;28;20514;-68
2023/09/28 08:49:46;;;;;;;1999.90;999.90;;;20.80;99.90;;;;;;5007577;28;20510;-68
2023/09/28 08:52:14;;;;;;;1999.90;999.90;;;20.80;99.90;;;;;;5007543;28;21001;-68
2023/09/28 08:54:40;;;;;;;1999.90;999.90;;;20.90;99.90;;;;;;4992207;28;20427;-68
2023/09/28 08:57:05;;;;;;;1999.90;999.90;;;20.90;99.90;;;;;;4996957;28;20475;-68
2023/09/28 08:59:31;;;;;;;1999.90;999.90;;;21.10;99.90;;;;;;5007356;28;20436;-68
2023/09/28 09:01:57;;;;;;;1999.90;999.90;;;21.10;99.90;;;;;;5007401;28;20191;-68
2023/09/28 09:04:24;;;;;;;1999.90;999.90;;;21.10;99.90;;;;;;5006065;28;20191;-69
2023/09/28 09:06:50;;;;;;;1999.90;999.90;;;21.10;99.90;;;;;;5007161;28;20411;-69
2023/09/28 09:09:18;;;;;;;1999.90;999.90;;;21.20;99.90;;;;;;5007203;28;20943;-68
2023/09/28 09:11:52;;;;;;;1999.90;999.90;;;21.30;99.90;;;;;;5007373;28;21099;-69
2023/09/28 09:14:20;;;;;;;1999.90;999.90;;;21.40;99.90;;;;;;5007965;28;20420;-68
2023/09/28 09:16:46;;;;;;;1999.90;999.90;;;21.60;99.90;;;;;;5007749;28;20532;-68
2023/09/28 09:19:14;;;;;;;1999.90;999.90;;;21.70;99.90;;;;;;5007178;28;20439;-68
2023/09/28 09:21:42;;;;;;;1999.90;999.90;;;21.80;99.90;;;;;;5007196;28;20233;-68
2023/09/28 09:24:11;;;;;;;1999.90;999.90;;;21.80;99.90;;;;;;5007884;28;20426;-68
2023/09/28 09:26:47;;;;;;;1999.90;999.90;;;21.80;99.90;;;;;;5007188;28;20427;-68
2023/09/28 09:29:14;;;;;;;1999.90;999.90;;;21.90;99.90;;;;;;5007087;28;20434;-68
2023/09/28 09:31:42;;;;;;;1999.90;999.90;;;22.00;99.90;;;;;;5007220;28;20421;-68
2023/09/28 09:34:14;;;;;;;1999.90;999.90;;;21.90;99.90;;;;;;5007457;28;20431;-68
2023/09/28 09:36:43;;;;;;;1999.90;999.90;;;21.90;99.90;;;;;;5007591;28;20549;-68
2023/09/28 09:39:21;;;;;;;1999.90;999.90;;;21.90;99.90;;;;;;5007623;28;20438;-68
2023/09/28 09:41:48;;;;;;;1999.90;999.90;;;21.90;99.90;;;;;;5007711;28;20506;-68
2023/09/28 09:44:18;;;;;;;1999.90;999.90;;;22.00;99.90;;;;;;5007055;28;20499;-68
2023/09/28 09:46:46;;;;;;;1999.90;999.90;;;22.20;99.90;;;;;;5006825;28;20505;-68
2023/09/28 09:49:13;;;;;;;1999.90;999.90;;;22.20;99.90;;;;;;5007088;28;20822;-68
2023/09/28 09:51:41;;;;;;;1999.90;999.90;;;22.30;99.90;;;;;;5007263;28;20514;-68
2023/09/28 09:54:08;;;;;;;1999.90;999.90;;;22.40;99.90;;;;;;5008899;28;20422;-68
2023/09/28 09:56:35;;;;;;;1999.90;999.90;;;22.40;99.90;;;;;;5010217;28;20986;-69
2023/09/28 09:59:05;;;;;;;1999.90;999.90;;;22.50;99.90;;;;;;5011466;28;20415;-68
2023/09/28 10:01:34;;;;;;;1999.90;999.90;;;22.60;99.90;;;;;;5010872;28;20394;-69
2023/09/28 10:04:04;;;;;;;1999.90;999.90;;;22.70;99.90;;;;;;5010416;28;20424;-68
2023/09/28 10:06:31;;;;;;;1999.90;999.90;;;22.90;99.90;;;;;;5010189;28;20431;-69
2023/09/28 10:08:57;;;;;;;1999.90;999.90;;;23.40;99.90;;;;;;5010803;28;20430;-70
2023/09/28 10:11:23;;;;;;;1999.90;999.90;;;23.10;99.90;;;;;;5010158;28;20423;-68
2023/09/28 10:13:50;;;;;;;1999.90;999.90;;;23.10;99.90;;;;;;5010529;28;20482;-69
2023/09/28 10:16:17;;;;;;;1999.90;999.90;;;23.20;99.90;;;;;;5004904;28;20456;-68
2023/09/28 10:18:45;;;;;;;1999.90;999.90;;;23.20;99.90;;;;;;5002615;28;20427;-68
2023/09/28 10:21:11;;;;;;;1999.90;999.90;;;23.40;99.90;;;;;;5010082;28;20447;-67
2023/09/28 10:23:37;;;;;;;1999.90;999.90;;;23.40;99.90;;;;;;5010417;28;20420;-69
2023/09/28 10:26:12;;;;;;;1999.90;999.90;;;23.40;99.90;;;;;;5010151;28;20181;-68
2023/09/28 10:29:04;;;;;;;1999.90;999.90;;;23.60;99.90;;;;;;5009308;28;20675;-68
2023/09/28 10:31:34;;;;;;;1999.90;999.90;;;23.90;99.90;;;;;;5009305;28;20459;-69
2023/09/28 10:34:01;;;;;;;1999.90;999.90;;;24.00;99.90;;;;;;5009573;28;20416;-68
2023/09/28 10:36:27;;;;;;;1999.90;999.90;;;23.90;99.90;;;;;;5008677;28;20505;-68
2023/09/28 10:39:17;;;;;;;1999.90;999.90;;;23.70;99.90;;;;;;5009509;28;20408;-68
2023/09/28 10:41:49;;;;;;;1999.90;999.90;;;23.70;99.90;;;;;;5010330;28;20932;-68
2023/09/28 10:44:20;;;;;;;1999.90;999.90;;;23.80;99.90;;;;;;5009880;28;20416;-67
2023/09/28 10:46:50;;;;;;;1999.90;999.90;;;23.90;99.90;;;;;;5009511;28;20427;-68
2023/09/28 10:49:26;;;;;;;1999.90;999.90;;;24.00;99.90;;;;;;5009169;28;20800;-68
2023/09/28 10:51:52;;;;;;;1999.90;999.90;;;24.00;99.90;;;;;;5009710;28;20419;-68
2023/09/28 10:54:19;;;;;;;1999.90;999.90;;;24.10;99.90;;;;;;5010401;28;20950;-68
2023/09/28 10:56:51;;;;;;;1999.90;999.90;;;24.10;99.90;;;;;;5009209;28;20985;-68
2023/09/28 10:59:21;;;;;;;1999.90;999.90;;;24.10;99.90;;;;;;5009553;28;20541;-68
2023/09/28 11:01:48;;;;;;;1999.90;999.90;;;24.20;99.90;;;;;;5009530;28;20394;-68
2023/09/28 11:04:15;;;;;;;1999.90;999.90;;;24.40;99.90;;;;;;5009923;28;20390;-68
2023/09/28 11:06:43;;;;;;;1999.90;999.90;;;24.70;99.90;;;;;;5009179;28;20402;-68
2023/09/28 11:09:09;;;;;;;1999.90;999.90;;;25.00;99.90;;;;;;5008891;28;20444;-68
2023/09/28 11:11:37;;;;;;;1999.90;999.90;;;25.20;99.90;;;;;;5009339;28;20397;-69
2023/09/28 11:14:05;;;;;;;1999.90;999.90;;;25.00;99.90;;;;;;5009586;28;20431;-68
2023/09/28 11:16:33;;;;;;;1999.90;999.90;;;25.00;99.90;;;;;;5009046;28;20560;-67
2023/09/28 11:19:00;;;;;;;1999.90;999.90;;;25.10;99.90;;;;;;5009170;28;20418;-69
2023/09/28 11:21:32;;;;;;;1999.90;999.90;;;25.10;99.90;;;;;;5010011;28;20394;-69
2023/09/28 11:23:57;;;;;;;1999.90;999.90;;;25.20;99.90;;;;;;5009399;28;20481;-67
2023/09/28 11:26:24;;;;;;;1999.90;999.90;;;25.50;99.90;;;;;;5008335;28;20474;-68
2023/09/28 11:28:51;;;;;;;1999.90;999.90;;;25.70;99.90;;;;;;5009330;28;20609;-69
2023/09/28 11:31:16;;;;;;;1999.90;999.90;;;26.10;99.90;;;;;;5009122;28;20390;-68
2023/09/28 11:33:45;;;;;;;1999.90;999.90;;;26.20;99.00;;;;;;5008763;28;20909;-69
2023/09/28 11:36:22;;;;;;;1999.90;999.90;;;26.30;97.50;;;;;;5008809;28;20196;-70
2023/09/28 11:38:49;;;;;;;1999.90;999.90;;;26.50;97.30;;;;;;5008819;28;20412;-69
2023/09/28 11:41:16;;;;;;;1999.90;999.90;;;26.90;95.60;;;;;;5009720;28;20890;-68
2023/09/28 11:43:54;;;;;;;1999.90;999.90;;;27.40;92.60;;;;;;5009078;28;20390;-68
2023/09/28 11:46:31;;;;;;;1999.90;999.90;;;27.60;91.30;;;;;;5008808;28;20390;-68
2023/09/28 11:49:10;;;;;;;1999.90;999.90;;;27.70;88.80;;;;;;5008931;28;20945;-68
2023/09/28 11:51:37;;;;;;;1999.90;999.90;;;27.40;82.00;;;;;;5008840;28;20844;-68
2023/09/28 11:54:07;;;;;;;1999.90;999.90;;;27.40;84.70;;;;;;5008542;28;20502;-68
2023/09/28 11:56:33;;;;;;;1999.90;999.90;;;27.60;80.30;;;;;;5008522;28;20488;-68
2023/09/28 11:58:59;;;;;;;1999.90;999.90;;;27.60;77.20;;;;;;5009474;28;20463;-69